createdAt,value
2023-02-09T00:01:48.176Z,59.92
2023-02-09T00:07:08.850Z,60.69
2023-02-09T00:12:47.953Z,60.09
2023-02-09T00:18:08.694Z,60.38
2023-02-09T00:23:31.494Z,60.90
2023-02-09T00:28:52.497Z,60.80
2023-02-09T00:34:15.084Z,60.88
2023-02-09T00:39:35.683Z,60.11
2023-02-09T00:44:59.134Z,60.38
2023-02-09T00:50:19.613Z,60.54
2023-02-09T00:55:40.308Z,60.25
2023-02-09T01:01:01.494Z,59.72
2023-02-09T01:06:22.338Z,59.90
2023-02-09T01:11:43.124Z,60.24
2023-02-09T01:17:06.004Z,61.06
2023-02-09T01:22:27.235Z,61.26
2023-02-09T01:27:47.960Z,60.82
2023-02-09T01:33:08.692Z,60.83
2023-02-09T01:38:29.614Z,60.02
2023-02-09T01:44:11.726Z,59.46
2023-02-09T01:49:32.845Z,60.05
2023-02-09T01:55:03.442Z,60.04
2023-02-09T02:00:25.509Z,59.73
2023-02-09T02:05:50.736Z,59.74
2023-02-09T02:11:12.771Z,60.15
2023-02-09T02:16:54.114Z,60.19
2023-02-09T02:22:53.866Z,59.89
2023-02-09T02:28:33.192Z,59.67
2023-02-09T02:33:57.347Z,60.53
2023-02-09T02:39:42.354Z,60.64
2023-02-09T02:45:12.540Z,60.74
2023-02-09T02:50:37.524Z,60.71
2023-02-09T02:56:06.301Z,61.39
2023-02-09T03:01:34.334Z,60.59
2023-02-09T03:06:55.441Z,60.27
2023-02-09T03:12:30.556Z,60.30
2023-02-09T03:18:23.366Z,60.30
2023-02-09T03:24:11.231Z,60.20
2023-02-09T03:29:33.890Z,60.73
2023-02-09T03:34:56.260Z,61.07
2023-02-09T03:40:19.364Z,60.03
2023-02-09T03:45:40.561Z,60.83
2023-02-09T03:51:01.202Z,60.88
2023-02-09T03:56:25.023Z,60.33
2023-02-09T04:01:45.680Z,60.84
2023-02-09T04:07:07.213Z,60.83
2023-02-09T04:12:28.128Z,60.69
2023-02-09T04:17:50.794Z,60.23
2023-02-09T04:23:11.856Z,60.17
2023-02-09T04:28:32.986Z,60.21
2023-02-09T04:33:53.952Z,60.05
2023-02-09T04:39:14.588Z,60.07
2023-02-09T04:44:35.469Z,60.12
2023-02-09T04:49:56.165Z,60.54
2023-02-09T04:55:17.263Z,60.30
2023-02-09T05:00:38.344Z,60.41
2023-02-09T05:06:02.287Z,60.59
2023-02-09T05:11:25.282Z,60.41
2023-02-09T05:16:46.289Z,60.08
2023-02-09T05:22:06.953Z,60.01
2023-02-09T05:27:27.728Z,60.13
2023-02-09T05:32:48.535Z,60.07
2023-02-09T05:38:09.214Z,60.55
2023-02-09T05:43:29.918Z,60.36
2023-02-09T05:48:50.647Z,60.06
2023-02-09T05:54:11.412Z,60.27
2023-02-09T05:59:32.584Z,60.59
2023-02-09T06:04:53.437Z,60.16
2023-02-09T06:10:14.227Z,60.59
2023-02-09T06:15:35.016Z,60.08
2023-02-09T06:20:55.643Z,59.61
2023-02-09T06:26:17.684Z,60.37
2023-02-09T06:31:38.747Z,60.33
2023-02-09T06:37:00.198Z,60.62
2023-02-09T06:42:21.133Z,60.17
2023-02-09T06:47:43.372Z,60.08
2023-02-09T06:53:04.598Z,59.55
2023-02-09T06:58:25.356Z,60.44
2023-02-09T07:03:46.050Z,60.29
2023-02-09T07:09:06.752Z,60.74
2023-02-09T07:14:27.367Z,60.25
2023-02-09T07:19:48.279Z,60.09
2023-02-09T07:25:09.008Z,60.16
2023-02-09T07:30:30.168Z,59.50
2023-02-09T07:35:51.181Z,59.45
2023-02-09T07:41:17.872Z,64.22
2023-02-09T07:46:38.860Z,60.52
2023-02-09T07:51:59.660Z,61.49
2023-02-09T07:57:20.300Z,60.28
2023-02-09T08:02:40.992Z,59.08
2023-02-09T08:08:01.648Z,58.61
2023-02-09T08:13:23.736Z,58.85
2023-02-09T08:18:54.474Z,58.90
2023-02-09T08:24:18.282Z,61.58
2023-02-09T08:29:39.045Z,60.09
2023-02-09T08:34:59.935Z,58.58
2023-02-09T08:40:20.545Z,58.96
2023-02-09T08:45:42.026Z,58.37
2023-02-09T08:51:03.485Z,58.97
2023-02-09T08:56:24.549Z,58.39
2023-02-09T09:01:45.253Z,58.39
2023-02-09T09:07:06.012Z,58.20
2023-02-09T09:12:26.650Z,58.14
2023-02-09T09:17:47.677Z,57.97
2023-02-09T09:23:09.364Z,58.27
2023-02-09T09:28:31.189Z,58.13
2023-02-09T09:33:52.030Z,57.49
2023-02-09T09:39:12.828Z,57.70
2023-02-09T09:44:38.158Z,57.25
2023-02-09T09:49:59.123Z,57.18
2023-02-09T09:55:24.246Z,56.97
2023-02-09T10:00:45.509Z,56.48
2023-02-09T10:06:21.065Z,56.13
2023-02-09T10:11:48.740Z,56.10
2023-02-09T10:17:09.498Z,56.36
2023-02-09T10:22:30.180Z,56.61
2023-02-09T10:27:50.829Z,56.88
2023-02-09T10:33:15.615Z,55.98
2023-02-09T10:38:40.837Z,55.47
2023-02-09T10:44:08.066Z,55.79
2023-02-09T10:49:36.531Z,55.41
2023-02-09T10:55:02.848Z,55.05
2023-02-09T11:00:31.799Z,55.20
2023-02-09T11:06:03.728Z,55.02
2023-02-09T11:11:36.676Z,54.92
2023-02-09T11:17:20.685Z,54.74
2023-02-09T11:22:57.150Z,54.47
2023-02-09T11:28:40.924Z,54.55
2023-02-09T11:34:14.592Z,54.51
2023-02-09T11:39:55.307Z,54.40
2023-02-09T11:45:30.903Z,53.81
2023-02-09T11:51:14.477Z,53.70
2023-02-09T11:56:41.876Z,53.42
2023-02-09T12:02:38.906Z,53.81
2023-02-09T12:08:07.433Z,52.84
2023-02-09T12:13:39.962Z,53.83
2023-02-09T12:19:03.343Z,52.79
2023-02-09T12:24:39.304Z,52.50
2023-02-09T12:30:01.241Z,53.24
2023-02-09T12:35:28.402Z,52.85
2023-02-09T12:41:07.407Z,53.17
2023-02-09T12:46:31.789Z,52.62
2023-02-09T12:52:00.432Z,52.43
2023-02-09T12:57:22.298Z,52.01
2023-02-09T13:02:50.316Z,52.40
2023-02-09T13:08:11.368Z,52.13
2023-02-09T13:13:32.081Z,52.23
2023-02-09T13:18:52.673Z,52.03
2023-02-09T13:24:18.942Z,51.92
2023-02-09T13:29:48.538Z,51.21
2023-02-09T13:35:22.357Z,51.78
2023-02-09T13:40:48.892Z,51.31
2023-02-09T13:46:24.312Z,51.65
2023-02-09T13:51:45.129Z,51.48
2023-02-09T13:57:30.986Z,52.05
2023-02-09T14:02:57.671Z,51.02
2023-02-09T14:08:20.112Z,51.22
2023-02-09T14:13:45.380Z,51.18
2023-02-09T14:19:27.169Z,51.04
2023-02-09T14:24:47.920Z,50.53
2023-02-09T14:30:32.127Z,50.24
2023-02-09T14:35:59.273Z,50.18
2023-02-09T14:41:28.542Z,51.00
2023-02-09T14:46:55.249Z,50.64
2023-02-09T14:52:18.677Z,50.39
2023-02-09T14:57:39.801Z,50.47
2023-02-09T15:03:00.748Z,50.52
2023-02-09T15:08:24.293Z,50.40
2023-02-09T15:13:45.246Z,49.91
2023-02-09T15:19:19.951Z,49.95
2023-02-09T15:24:48.389Z,49.73
2023-02-09T15:30:15.722Z,50.30
2023-02-09T15:35:36.961Z,49.71
2023-02-09T15:41:18.962Z,50.47
2023-02-09T15:46:58.504Z,49.92
2023-02-09T15:52:19.432Z,50.20
2023-02-09T15:57:40.164Z,50.37
2023-02-09T16:03:01.726Z,50.26
2023-02-09T16:08:25.577Z,50.82
2023-02-09T16:13:46.731Z,54.47
2023-02-09T16:19:07.762Z,51.57
2023-02-09T16:24:41.386Z,51.73
2023-02-09T16:30:03.876Z,52.10
2023-02-09T16:35:25.488Z,51.96
2023-02-09T16:40:46.439Z,51.39
2023-02-09T16:46:07.648Z,50.89
2023-02-09T16:51:28.862Z,51.10
2023-02-09T16:56:54.651Z,50.65
2023-02-09T17:02:30.617Z,50.85
2023-02-09T17:07:58.426Z,51.14
2023-02-09T17:13:22.915Z,51.59
2023-02-09T17:18:47.126Z,50.74
2023-02-09T17:24:26.300Z,51.55
2023-02-09T17:29:47.323Z,51.38
2023-02-09T17:35:38.283Z,51.74
2023-02-09T17:41:05.608Z,51.56
2023-02-09T17:46:26.596Z,51.38
2023-02-09T17:51:48.842Z,51.86
2023-02-09T17:57:14.142Z,51.83
2023-02-09T18:02:35.029Z,51.48
2023-02-09T18:07:56.689Z,51.65
2023-02-09T18:13:20.361Z,51.94
2023-02-09T18:18:41.349Z,52.02
2023-02-09T18:24:03.333Z,52.00
2023-02-09T18:29:29.322Z,52.26
2023-02-09T18:34:50.822Z,52.15
2023-02-09T18:40:12.147Z,52.23
2023-02-09T18:45:34.402Z,52.40
2023-02-09T18:50:55.355Z,52.59
2023-02-09T18:56:21.020Z,52.16
2023-02-09T19:01:42.343Z,52.49
2023-02-09T19:07:03.566Z,52.45
2023-02-09T19:12:27.007Z,52.80
2023-02-09T19:17:49.315Z,53.03
2023-02-09T19:23:10.648Z,53.05
2023-02-09T19:28:35.306Z,53.14
2023-02-09T19:33:57.274Z,53.02
2023-02-09T19:39:19.783Z,53.28
2023-02-09T19:44:40.473Z,53.40
2023-02-09T19:50:01.150Z,53.58
2023-02-09T19:55:21.994Z,54.23
2023-02-09T20:00:44.006Z,53.52
2023-02-09T20:06:11.724Z,53.90
2023-02-09T20:11:33.570Z,53.63
2023-02-09T20:16:54.736Z,53.60
2023-02-09T20:22:16.956Z,53.30
2023-02-09T20:27:37.816Z,53.75
2023-02-09T20:32:58.584Z,53.26
2023-02-09T20:38:20.914Z,53.27
2023-02-09T20:44:02.683Z,53.86
2023-02-09T20:49:34.381Z,53.56
2023-02-09T20:54:55.818Z,53.81
2023-02-09T21:00:17.392Z,53.63
2023-02-09T21:05:40.868Z,53.83
2023-02-09T21:11:01.576Z,53.81
2023-02-09T21:16:25.362Z,53.47
2023-02-09T21:21:46.082Z,53.52
2023-02-09T21:27:07.192Z,53.53
2023-02-09T21:32:27.769Z,53.50
2023-02-09T21:37:48.966Z,54.06
2023-02-09T21:43:10.234Z,53.98
2023-02-09T21:48:31.266Z,54.03
2023-02-09T21:53:52.577Z,53.91
2023-02-09T21:59:13.360Z,53.99
2023-02-09T22:04:34.199Z,54.18
2023-02-09T22:09:54.858Z,54.31
2023-02-09T22:15:18.042Z,54.23
2023-02-09T22:20:43.849Z,54.32
2023-02-09T22:26:06.001Z,54.44
2023-02-09T22:31:27.004Z,54.57
2023-02-09T22:36:51.411Z,54.77
2023-02-09T22:42:12.256Z,54.54
2023-02-09T22:47:33.770Z,54.46
2023-02-09T22:52:54.590Z,54.85
2023-02-09T22:58:15.296Z,54.64
2023-02-09T23:03:36.763Z,54.63
2023-02-09T23:09:00.876Z,54.84
2023-02-09T23:14:21.873Z,55.02
2023-02-09T23:19:42.591Z,54.79
2023-02-09T23:25:03.241Z,55.25
2023-02-09T23:30:24.028Z,55.23
2023-02-09T23:35:45.042Z,55.55
2023-02-09T23:41:12.474Z,55.12
2023-02-09T23:46:33.429Z,55.21
2023-02-09T23:51:54.146Z,54.97
2023-02-09T23:57:14.834Z,55.11
